createdAt,value
2022-08-23T00:00:00.105Z,13.01
2022-08-23T00:02:29.487Z,12.94
2022-08-23T00:05:07.751Z,12.87
2022-08-23T00:07:38.811Z,12.76
2022-08-23T00:10:09.828Z,12.74
2022-08-23T00:12:38.124Z,12.72
2022-08-23T00:15:07.716Z,12.71
2022-08-23T00:17:36.528Z,12.68
2022-08-23T00:20:06.471Z,12.60
2022-08-23T00:22:34.207Z,12.60
2022-08-23T00:25:01.968Z,12.77
2022-08-23T00:27:30.979Z,12.68
2022-08-23T00:29:59.013Z,12.62
2022-08-23T00:32:30.139Z,12.58
2022-08-23T00:34:58.437Z,12.49
2022-08-23T00:37:27.420Z,12.34
2022-08-23T00:39:55.213Z,12.38
2022-08-23T00:42:51.185Z,12.30
2022-08-23T00:45:41.490Z,12.27
2022-08-23T00:48:09.513Z,12.32
2022-08-23T00:50:41.882Z,12.28
2022-08-23T00:53:13.395Z,12.22
2022-08-23T00:55:43.948Z,12.18
2022-08-23T00:58:14.510Z,12.03
2022-08-23T01:00:42.232Z,11.98
2022-08-23T01:03:12.235Z,11.97
2022-08-23T01:05:57.685Z,11.97
2022-08-23T01:08:28.557Z,11.97
2022-08-23T01:11:00.367Z,11.95
2022-08-23T01:13:37.017Z,11.92
2022-08-23T01:16:08.538Z,11.84
2022-08-23T01:18:36.618Z,11.83
2022-08-23T01:21:13.451Z,11.77
2022-08-23T01:23:46.323Z,11.69
2022-08-23T01:26:21.983Z,11.62
2022-08-23T01:28:54.823Z,11.70
2022-08-23T01:31:25.016Z,11.68
2022-08-23T01:33:59.409Z,11.65
2022-08-23T01:36:27.917Z,11.60
2022-08-23T01:38:57.931Z,11.49
2022-08-23T01:41:25.633Z,11.48
2022-08-23T01:43:53.679Z,11.45
2022-08-23T01:46:26.132Z,11.38
2022-08-23T01:48:55.523Z,11.38
2022-08-23T01:51:24.965Z,11.35
2022-08-23T01:53:53.345Z,11.19
2022-08-23T01:56:38.231Z,11.20
2022-08-23T01:59:11.520Z,11.25
2022-08-23T02:01:48.860Z,11.36
2022-08-23T02:04:18.105Z,11.28
2022-08-23T02:06:47.233Z,11.07
2022-08-23T02:09:20.121Z,11.24
2022-08-23T02:11:50.074Z,11.32
2022-08-23T02:14:21.119Z,11.27
2022-08-23T02:17:04.389Z,11.24
2022-08-23T02:19:36.151Z,11.17
2022-08-23T02:22:05.378Z,11.15
2022-08-23T02:24:34.277Z,11.19
2022-08-23T02:27:06.098Z,11.16
2022-08-23T02:29:39.870Z,11.11
2022-08-23T02:32:10.867Z,10.97
2022-08-23T02:34:39.907Z,11.05
2022-08-23T02:37:09.281Z,11.06
2022-08-23T02:39:38.965Z,10.94
2022-08-23T02:42:11.564Z,11.05
2022-08-23T02:44:41.257Z,11.02
2022-08-23T02:47:09.334Z,10.92
2022-08-23T02:49:39.451Z,10.91
2022-08-23T02:52:08.529Z,10.91
2022-08-23T02:54:37.249Z,10.92
2022-08-23T02:57:05.944Z,10.74
2022-08-23T02:59:35.431Z,10.78
2022-08-23T03:02:03.368Z,10.83
2022-08-23T03:04:36.594Z,10.84
2022-08-23T03:07:04.641Z,10.69
2022-08-23T03:09:32.748Z,10.56
2022-08-23T03:12:00.678Z,10.70
2022-08-23T03:14:28.903Z,10.70
2022-08-23T03:17:00.464Z,10.78
2022-08-23T03:19:28.413Z,10.54
2022-08-23T03:21:57.130Z,10.58
2022-08-23T03:24:25.459Z,10.62
2022-08-23T03:26:53.337Z,10.47
2022-08-23T03:29:21.627Z,10.72
2022-08-23T03:32:11.049Z,10.64
2022-08-23T03:34:40.289Z,10.60
2022-08-23T03:37:10.404Z,10.72
2022-08-23T03:39:38.567Z,10.45
2022-08-23T03:42:06.723Z,10.44
2022-08-23T03:44:35.602Z,10.23
2022-08-23T03:47:03.470Z,10.36
2022-08-23T03:49:32.811Z,10.25
2022-08-23T03:52:01.295Z,9.96
2022-08-23T03:54:35.203Z,10.67
2022-08-23T03:57:09.360Z,10.58
2022-08-23T03:59:39.941Z,9.77
2022-08-23T04:02:11.129Z,10.15
2022-08-23T04:04:41.308Z,9.70
2022-08-23T04:07:21.712Z,9.76
2022-08-23T04:09:55.358Z,10.30
2022-08-23T04:12:26.449Z,9.72
2022-08-23T04:14:54.875Z,9.56
2022-08-23T04:17:24.272Z,10.56
2022-08-23T04:19:54.654Z,10.30
2022-08-23T04:22:22.630Z,10.57
2022-08-23T04:24:50.391Z,9.81
2022-08-23T04:27:18.685Z,10.52
2022-08-23T04:29:47.613Z,9.85
2022-08-23T04:32:26.665Z,9.98
2022-08-23T04:34:59.384Z,10.52
2022-08-23T04:37:28.599Z,9.91
2022-08-23T04:40:14.687Z,10.16
2022-08-23T04:42:43.730Z,10.59
2022-08-23T04:45:12.599Z,10.21
2022-08-23T04:47:44.782Z,10.28
2022-08-23T04:50:18.496Z,10.42
2022-08-23T04:53:09.181Z,10.53
2022-08-23T04:55:44.804Z,10.55
2022-08-23T04:58:12.564Z,10.52
2022-08-23T05:00:51.445Z,10.57
2022-08-23T05:03:23.914Z,10.38
2022-08-23T05:05:55.427Z,10.58
2022-08-23T05:08:29.411Z,10.56
2022-08-23T05:11:00.277Z,10.68
2022-08-23T05:13:28.062Z,10.72
2022-08-23T05:15:55.945Z,10.84
2022-08-23T05:18:28.506Z,11.21
2022-08-23T05:20:57.881Z,11.38
2022-08-23T05:23:31.994Z,11.22
2022-08-23T05:26:08.084Z,11.56
2022-08-23T05:28:42.907Z,11.36
2022-08-23T05:31:13.058Z,11.61
2022-08-23T05:33:46.744Z,11.64
2022-08-23T05:36:20.550Z,11.54
2022-08-23T05:38:49.433Z,11.26
2022-08-23T05:41:18.325Z,11.50
2022-08-23T05:43:50.463Z,11.78
2022-08-23T05:46:20.624Z,11.78
2022-08-23T05:48:58.618Z,11.79
2022-08-23T05:51:30.982Z,11.42
2022-08-23T05:54:01.282Z,11.86
2022-08-23T05:56:32.899Z,12.09
2022-08-23T05:59:05.686Z,12.17
2022-08-23T06:01:35.054Z,12.02
2022-08-23T06:04:13.133Z,12.31
2022-08-23T06:06:44.823Z,12.42
2022-08-23T06:09:14.834Z,11.65
2022-08-23T06:11:45.437Z,12.54
2022-08-23T06:14:14.964Z,12.72
2022-08-23T06:16:47.488Z,12.73
2022-08-23T06:19:19.685Z,12.90
2022-08-23T06:21:49.625Z,12.61
2022-08-23T06:24:24.331Z,12.90
2022-08-23T06:26:59.468Z,13.08
2022-08-23T06:29:27.304Z,12.71
2022-08-23T06:32:15.060Z,13.26
2022-08-23T06:35:38.678Z,13.25
2022-08-23T06:38:03.770Z,13.37
2022-08-23T06:40:46.927Z,13.57
2022-08-23T06:43:20.715Z,13.73
2022-08-23T06:46:09.291Z,13.63
2022-08-23T06:48:39.343Z,13.98
2022-08-23T06:51:12.509Z,13.87
2022-08-23T06:53:55.154Z,14.13
2022-08-23T06:56:52.385Z,14.18
2022-08-23T06:59:24.758Z,14.24
2022-08-23T07:02:15.960Z,14.27
2022-08-23T07:05:13.169Z,13.91
2022-08-23T07:07:52.653Z,14.73
2022-08-23T07:10:21.892Z,14.15
2022-08-23T07:12:50.520Z,14.94
2022-08-23T07:15:21.214Z,15.16
2022-08-23T07:17:50.732Z,15.30
2022-08-23T07:20:19.227Z,14.92
2022-08-23T07:22:46.993Z,15.30
2022-08-23T07:25:15.132Z,15.64
2022-08-23T07:27:48.904Z,15.16
2022-08-23T07:30:20.423Z,15.25
2022-08-23T07:32:49.087Z,15.56
2022-08-23T07:35:22.312Z,16.11
2022-08-23T07:37:52.682Z,15.44
2022-08-23T07:40:21.781Z,16.24
2022-08-23T07:42:57.027Z,16.72
2022-08-23T07:45:25.587Z,16.91
2022-08-23T07:47:57.802Z,18.07
2022-08-23T07:50:30.353Z,19.37
2022-08-23T07:53:01.135Z,19.75
2022-08-23T07:55:29.515Z,21.23
2022-08-23T07:58:26.707Z,21.87
2022-08-23T08:01:19.151Z,21.43
2022-08-23T08:03:54.007Z,20.30
2022-08-23T08:06:33.508Z,20.34
2022-08-23T08:09:01.302Z,20.40
2022-08-23T08:11:34.741Z,20.58
2022-08-23T08:14:08.147Z,20.82
2022-08-23T08:16:42.184Z,21.25
2022-08-23T08:19:15.111Z,20.60
2022-08-23T08:21:54.916Z,19.22
2022-08-23T08:24:34.005Z,19.23
2022-08-23T08:27:09.288Z,18.85
2022-08-23T08:29:38.513Z,18.75
2022-08-23T08:32:07.308Z,18.27
2022-08-23T08:34:41.565Z,18.26
2022-08-23T08:37:10.740Z,18.11
2022-08-23T08:39:45.286Z,18.13
2022-08-23T08:42:32.428Z,17.99
2022-08-23T08:45:06.376Z,18.14
2022-08-23T08:47:44.388Z,17.95
2022-08-23T08:50:17.127Z,18.06
2022-08-23T08:52:50.019Z,18.00
2022-08-23T08:55:33.954Z,18.08
2022-08-23T08:58:02.968Z,18.16
2022-08-23T09:00:35.408Z,18.19
2022-08-23T09:03:11.850Z,18.44
2022-08-23T09:05:47.023Z,18.32
2022-08-23T09:08:38.786Z,18.29
2022-08-23T09:11:17.567Z,17.83
2022-08-23T09:14:03.685Z,18.15
2022-08-23T09:16:44.969Z,18.10
2022-08-23T09:19:13.287Z,17.81
2022-08-23T09:21:49.398Z,18.70
2022-08-23T09:24:17.562Z,18.63
2022-08-23T09:26:56.268Z,18.80
2022-08-23T09:29:27.689Z,18.74
2022-08-23T09:32:02.095Z,18.77
2022-08-23T09:34:44.263Z,18.56
2022-08-23T09:37:18.927Z,18.96
2022-08-23T09:39:50.598Z,19.05
2022-08-23T09:42:30.657Z,19.00
2022-08-23T09:44:59.687Z,18.77
2022-08-23T09:47:36.749Z,18.80
2022-08-23T09:50:29.049Z,19.15
2022-08-23T09:53:00.517Z,19.19
2022-08-23T09:55:33.761Z,19.36
2022-08-23T09:58:04.909Z,18.83
2022-08-23T10:00:35.541Z,19.29
2022-08-23T10:03:29.956Z,19.27
2022-08-23T10:06:09.574Z,19.09
2022-08-23T10:08:53.007Z,19.27
2022-08-23T10:11:24.929Z,19.27
2022-08-23T10:13:54.172Z,19.13
2022-08-23T10:16:34.880Z,19.46
2022-08-23T10:19:20.986Z,19.05
2022-08-23T10:21:58.563Z,19.55
2022-08-23T10:24:40.070Z,19.85
2022-08-23T10:27:46.429Z,19.83
2022-08-23T10:30:17.855Z,20.03
2022-08-23T10:32:57.343Z,20.16
2022-08-23T10:35:40.312Z,20.22
2022-08-23T10:38:25.042Z,20.53
2022-08-23T10:41:03.951Z,20.66
2022-08-23T10:43:44.497Z,20.81
2022-08-23T10:46:12.967Z,20.84
2022-08-23T10:48:51.704Z,20.98
2022-08-23T10:51:32.058Z,21.04
2022-08-23T10:54:06.144Z,21.26
2022-08-23T10:56:35.348Z,21.19
2022-08-23T10:59:08.806Z,21.44
2022-08-23T11:01:46.236Z,21.47
2022-08-23T11:04:25.611Z,21.44
2022-08-23T11:07:20.449Z,21.65
2022-08-23T11:09:53.455Z,22.06
2022-08-23T11:12:26.989Z,22.09
2022-08-23T11:15:10.020Z,22.09
2022-08-23T11:17:56.638Z,22.40
2022-08-23T11:21:03.422Z,22.43
2022-08-23T11:23:47.304Z,22.63
2022-08-23T11:27:06.790Z,22.63
2022-08-23T11:29:43.716Z,22.52
2022-08-23T11:32:39.750Z,22.53
2022-08-23T11:35:13.592Z,22.67
2022-08-23T11:37:55.090Z,22.74
2022-08-23T11:41:00.174Z,22.69
2022-08-23T11:43:37.653Z,22.75
2022-08-23T11:46:32.116Z,22.86
2022-08-23T11:49:47.476Z,22.80
2022-08-23T11:52:38.085Z,22.77
2022-08-23T11:55:24.561Z,22.57
2022-08-23T11:58:05.850Z,22.65
2022-08-23T12:00:54.818Z,22.64
2022-08-23T12:03:26.347Z,22.65
2022-08-23T12:06:13.062Z,22.76
2022-08-23T12:09:01.933Z,22.64
2022-08-23T12:12:00.735Z,22.59
2022-08-23T12:14:49.584Z,22.52
2022-08-23T12:18:07.825Z,22.42
2022-08-23T12:20:38.489Z,22.59
2022-08-23T12:23:20.506Z,22.28
2022-08-23T12:25:59.730Z,21.82
2022-08-23T12:28:38.101Z,21.99
2022-08-23T12:31:19.379Z,21.95
2022-08-23T12:34:00.363Z,21.42
2022-08-23T12:36:37.048Z,21.87
2022-08-23T12:39:08.523Z,21.41
2022-08-23T12:41:51.815Z,21.75
2022-08-23T12:44:21.826Z,21.60
2022-08-23T12:46:52.195Z,21.70
2022-08-23T12:49:27.461Z,21.37
2022-08-23T12:51:57.989Z,21.75
2022-08-23T12:54:37.197Z,21.79
2022-08-23T12:57:11.863Z,21.67
2022-08-23T12:59:46.351Z,21.67
2022-08-23T13:02:21.890Z,21.62
2022-08-23T13:04:49.754Z,21.65
2022-08-23T13:07:22.997Z,21.67
2022-08-23T13:09:53.296Z,21.80
2022-08-23T13:12:23.649Z,21.40
2022-08-23T13:14:53.861Z,21.71
2022-08-23T13:17:32.782Z,21.71
2022-08-23T13:20:19.891Z,21.61
2022-08-23T13:22:59.034Z,21.55
2022-08-23T13:25:31.631Z,21.70
2022-08-23T13:28:02.261Z,21.50
2022-08-23T13:30:32.429Z,21.71
2022-08-23T13:33:23.101Z,21.88
2022-08-23T13:35:54.197Z,21.43
2022-08-23T13:38:25.865Z,21.57
2022-08-23T13:41:00.787Z,21.98
2022-08-23T13:43:33.674Z,21.93
2022-08-23T13:46:13.445Z,21.86
2022-08-23T13:48:48.929Z,21.98
2022-08-23T13:51:25.769Z,21.88
2022-08-23T13:53:53.915Z,21.94
2022-08-23T13:56:22.091Z,21.98
2022-08-23T13:58:56.521Z,21.96
2022-08-23T14:01:24.830Z,22.32
2022-08-23T14:03:53.950Z,22.22
2022-08-23T14:06:21.776Z,21.91
2022-08-23T14:08:49.540Z,22.08
2022-08-23T14:11:17.357Z,22.03
2022-08-23T14:13:47.919Z,22.11
2022-08-23T14:16:39.976Z,22.48
2022-08-23T14:19:18.098Z,21.89
2022-08-23T14:22:00.869Z,22.17
2022-08-23T14:24:29.630Z,22.06
2022-08-23T14:26:58.272Z,22.05
2022-08-23T14:29:28.903Z,22.04
2022-08-23T14:31:58.244Z,21.66
2022-08-23T14:34:28.292Z,21.98
2022-08-23T14:39:44.074Z,22.21
2022-08-23T14:42:14.018Z,22.31
2022-08-23T14:44:42.338Z,22.31
2022-08-23T14:47:09.984Z,22.44
2022-08-23T14:49:39.168Z,22.44
2022-08-23T14:52:07.038Z,22.37
2022-08-23T14:54:37.346Z,22.38
2022-08-23T14:57:05.520Z,22.19
2022-08-23T14:59:33.193Z,22.38
2022-08-23T15:02:01.125Z,22.45
2022-08-23T15:04:34.578Z,22.44
2022-08-23T15:07:17.598Z,22.57
2022-08-23T15:09:46.236Z,22.88
2022-08-23T15:15:01.546Z,22.80
2022-08-23T15:17:31.622Z,22.77
2022-08-23T15:19:59.773Z,22.75
2022-08-23T15:22:28.831Z,22.72
2022-08-23T15:24:56.518Z,22.77
2022-08-23T15:27:25.619Z,22.76
2022-08-23T15:29:53.785Z,22.01
2022-08-23T15:32:22.562Z,22.74
2022-08-23T15:34:50.463Z,22.72
2022-08-23T15:39:48.306Z,22.35
2022-08-23T15:42:20.079Z,22.81
2022-08-23T15:44:48.600Z,22.72
2022-08-23T15:47:21.560Z,22.77
2022-08-23T15:49:49.810Z,22.58
2022-08-23T15:52:18.196Z,22.74
2022-08-23T15:54:45.931Z,22.37
2022-08-23T15:57:18.333Z,22.44
2022-08-23T15:59:46.327Z,22.49
2022-08-23T16:02:14.280Z,22.66
2022-08-23T16:04:42.034Z,22.70
2022-08-23T16:07:13.906Z,22.62
2022-08-23T16:09:42.098Z,22.55
2022-08-23T16:12:10.649Z,22.66
2022-08-23T16:14:39.674Z,22.56
2022-08-23T16:17:08.822Z,22.49
2022-08-23T16:19:36.920Z,22.48
2022-08-23T16:22:05.032Z,22.46
2022-08-23T16:24:32.767Z,22.31
2022-08-23T16:27:00.450Z,22.39
2022-08-23T16:29:33.174Z,22.36
2022-08-23T16:32:02.575Z,22.33
2022-08-23T16:34:30.288Z,21.80
2022-08-23T16:37:00.621Z,22.34
2022-08-23T16:39:29.652Z,22.17
2022-08-23T16:41:57.533Z,22.20
2022-08-23T16:44:25.346Z,21.83
2022-08-23T16:46:53.049Z,22.13
2022-08-23T16:49:22.236Z,21.60
2022-08-23T16:51:50.511Z,22.02
2022-08-23T16:54:19.518Z,21.98
2022-08-23T16:56:47.412Z,21.85
2022-08-23T16:59:15.460Z,21.24
2022-08-23T17:01:49.395Z,21.79
2022-08-23T17:04:18.405Z,21.73
2022-08-23T17:06:47.832Z,21.72
2022-08-23T17:09:15.630Z,21.23
2022-08-23T17:11:44.718Z,21.39
2022-08-23T17:14:13.206Z,20.77
2022-08-23T17:16:42.214Z,21.39
2022-08-23T17:19:09.941Z,21.31
2022-08-23T17:21:38.298Z,21.00
2022-08-23T17:24:08.110Z,20.98
2022-08-23T17:26:35.818Z,20.92
2022-08-23T17:29:04.677Z,20.30
2022-08-23T17:31:32.632Z,20.55
2022-08-23T17:34:03.765Z,20.75
2022-08-23T17:36:34.814Z,20.64
2022-08-23T17:39:04.095Z,20.20
2022-08-23T17:41:35.405Z,20.27
2022-08-23T17:44:03.711Z,20.08
2022-08-23T17:46:31.570Z,19.55
2022-08-23T17:48:59.451Z,19.41
2022-08-23T17:51:27.208Z,19.99
2022-08-23T17:53:54.926Z,19.33
2022-08-23T17:56:22.587Z,19.81
2022-08-23T17:58:51.761Z,18.84
2022-08-23T18:01:20.011Z,19.63
2022-08-23T18:03:47.680Z,19.32
2022-08-23T18:06:16.767Z,19.16
2022-08-23T18:08:45.971Z,19.28
2022-08-23T18:11:13.897Z,19.09
2022-08-23T18:13:41.548Z,19.21
2022-08-23T18:16:10.567Z,19.10
2022-08-23T18:18:38.537Z,18.09
2022-08-23T18:21:07.535Z,18.84
2022-08-23T18:23:35.611Z,18.86
2022-08-23T18:26:06.470Z,18.74
2022-08-23T18:28:33.208Z,18.72
2022-08-23T18:31:03.586Z,18.24
2022-08-23T18:33:47.061Z,18.56
2022-08-23T18:36:15.632Z,17.89
2022-08-23T18:38:43.322Z,18.43
2022-08-23T18:41:13.070Z,17.99
2022-08-23T18:43:41.557Z,18.09
2022-08-23T18:46:10.113Z,18.23
2022-08-23T18:48:40.103Z,18.12
2022-08-23T18:51:10.868Z,17.77
2022-08-23T18:53:45.731Z,17.97
2022-08-23T18:56:13.438Z,17.99
2022-08-23T18:58:41.126Z,17.23
2022-08-23T19:01:21.928Z,17.74
2022-08-23T19:03:51.767Z,17.71
2022-08-23T19:06:19.872Z,17.59
2022-08-23T19:08:48.721Z,17.54
2022-08-23T19:11:16.726Z,17.45
2022-08-23T19:13:44.492Z,17.33
2022-08-23T19:16:13.686Z,17.44
2022-08-23T19:18:42.035Z,17.42
2022-08-23T19:21:26.562Z,17.31
2022-08-23T19:23:57.209Z,17.11
2022-08-23T19:26:31.502Z,17.15
2022-08-23T19:29:00.527Z,16.41
2022-08-23T19:31:34.479Z,16.52
2022-08-23T19:34:05.418Z,17.02
2022-08-23T19:36:58.947Z,16.94
2022-08-23T19:39:24.536Z,16.07
2022-08-23T19:41:52.260Z,16.91
2022-08-23T19:44:21.147Z,16.87
2022-08-23T19:46:48.869Z,16.64
2022-08-23T19:49:16.919Z,16.68
2022-08-23T19:51:46.007Z,16.62
2022-08-23T19:54:13.736Z,16.58
2022-08-23T19:56:44.678Z,16.55
2022-08-23T19:59:15.923Z,16.51
2022-08-23T20:01:44.531Z,16.48
2022-08-23T20:04:12.669Z,15.97
2022-08-23T20:06:40.871Z,15.85
2022-08-23T20:09:10.414Z,16.29
2022-08-23T20:11:38.145Z,16.26
2022-08-23T20:14:06.767Z,16.09
2022-08-23T20:16:40.618Z,16.22
2022-08-23T20:19:09.726Z,15.41
2022-08-23T20:21:37.851Z,15.46
2022-08-23T20:24:05.480Z,16.07
2022-08-23T20:26:38.628Z,16.04
2022-08-23T20:29:06.609Z,15.84
2022-08-23T20:31:37.415Z,15.96
2022-08-23T20:34:07.534Z,15.88
2022-08-23T20:36:37.330Z,15.83
2022-08-23T20:39:05.979Z,15.33
2022-08-23T20:41:38.135Z,15.76
2022-08-23T20:44:06.859Z,15.72
2022-08-23T20:46:34.676Z,15.49
2022-08-23T20:49:02.434Z,15.60
2022-08-23T20:51:30.744Z,15.56
2022-08-23T20:54:04.582Z,15.33
2022-08-23T20:56:33.005Z,15.45
2022-08-23T20:59:02.229Z,15.41
2022-08-23T21:01:30.089Z,15.38
2022-08-23T21:03:58.026Z,15.16
2022-08-23T21:06:28.011Z,15.29
2022-08-23T21:08:58.578Z,15.27
2022-08-23T21:11:28.702Z,14.98
2022-08-23T21:13:58.503Z,15.25
2022-08-23T21:16:27.752Z,15.20
2022-08-23T21:18:56.824Z,15.19
2022-08-23T21:21:25.303Z,15.01
2022-08-23T21:23:54.097Z,14.18
2022-08-23T21:26:23.354Z,15.08
2022-08-23T21:28:51.769Z,15.03
2022-08-23T21:31:21.626Z,14.90
2022-08-23T21:33:50.994Z,14.67
2022-08-23T21:36:20.256Z,14.89
2022-08-23T21:38:48.451Z,14.91
2022-08-23T21:41:30.281Z,14.91
2022-08-23T21:43:57.936Z,14.91
2022-08-23T21:46:25.659Z,14.72
2022-08-23T21:48:55.077Z,14.85
2022-08-23T21:51:23.148Z,14.71
2022-08-23T21:53:50.985Z,14.77
2022-08-23T21:56:19.131Z,14.72
2022-08-23T21:58:46.949Z,14.72
2022-08-23T22:01:19.271Z,14.83
2022-08-23T22:03:46.961Z,14.83
2022-08-23T22:06:17.998Z,14.75
2022-08-23T22:08:46.948Z,14.91
2022-08-23T22:11:16.209Z,14.47
2022-08-23T22:13:44.786Z,14.75
2022-08-23T22:16:13.098Z,14.84
2022-08-23T22:18:41.142Z,14.74
2022-08-23T22:21:08.806Z,14.70
2022-08-23T22:23:41.908Z,14.80
2022-08-23T22:26:10.068Z,14.69
2022-08-23T22:28:37.738Z,14.75
2022-08-23T22:31:08.476Z,14.61
2022-08-23T22:33:36.188Z,14.50
2022-08-23T22:36:04.484Z,14.66
2022-08-23T22:38:32.172Z,14.63
2022-08-23T22:41:01.179Z,14.49
2022-08-23T22:43:28.946Z,14.46
2022-08-23T22:45:58.552Z,14.18
2022-08-23T22:48:29.578Z,14.40
2022-08-23T22:51:06.316Z,14.41
2022-08-23T22:53:34.050Z,14.31
2022-08-23T22:56:03.457Z,14.16
2022-08-23T22:58:31.253Z,14.08
2022-08-23T23:00:59.025Z,13.78
2022-08-23T23:03:27.231Z,13.99
2022-08-23T23:05:55.217Z,13.56
2022-08-23T23:08:28.772Z,13.89
2022-08-23T23:10:58.355Z,13.71
2022-08-23T23:13:29.361Z,13.83
2022-08-23T23:15:57.444Z,13.81
2022-08-23T23:18:27.403Z,13.80
2022-08-23T23:20:59.554Z,13.71
2022-08-23T23:23:28.225Z,13.76
2022-08-23T23:25:55.966Z,13.73
2022-08-23T23:28:23.780Z,13.70
2022-08-23T23:30:54.743Z,13.67
2022-08-23T23:33:23.615Z,13.64
2022-08-23T23:35:51.976Z,13.60
2022-08-23T23:38:19.815Z,13.54
2022-08-23T23:40:47.719Z,13.49
2022-08-23T23:43:15.432Z,13.49
2022-08-23T23:45:43.255Z,13.37
2022-08-23T23:48:12.693Z,13.36
2022-08-23T23:50:46.869Z,13.14
2022-08-23T23:53:15.004Z,13.36
2022-08-23T23:55:43.389Z,13.22
2022-08-23T23:58:11.211Z,13.30
